Pagina principale
METAR-TAF:

METAR-TAF

Aeroporti :

Troyes, Francia

latitudine: 48-20N, longitudine: 004-01E, altezza: 118 m

Osservazione

Il bollettino è stato emesso 24 minuti fa, alle 02:30 UTC
Vento 10 kt da sud-ovest
Temperature 11°C
Umidità 94%
Pressione 1026 hPa
Visibilità 10 km o più
Cielo coperto ad un'altezza di 1000 ft

METAR: LFQB 240230Z AUTO 22010KT 9999 OVC010 11/10 Q1026

Ora: 03:54 (02:54 UTC)


TAF: mancante

Osservazioni e previsioni meteorologiche di più di 4000 aeroporti (messaggi METAR e TAF).

Le stazioni disponibili sono rappresentate dai dischi gialli e rossi sulla carta.

Puntare il mouse per vedere il nome della stazione.

Clicca sopra per visualizzare le osservazioni e previsioni meteorologiche.

Per cambiare la mappa : fare clic sui pulsanti verdi con una croce nera per ingrandire, il pulsante verde con un trattino per diminuire, o sulla freccia verde per le mappe adiacenti.


METAR-TAF: